createdAt,value
2019-06-20T00:01:36.423Z,14.50
2019-06-20T00:04:04.723Z,16.23
2019-06-20T00:06:31.435Z,14.05
2019-06-20T00:08:59.778Z,14.63
2019-06-20T00:11:27.646Z,14.65
2019-06-20T00:13:54.385Z,13.18
2019-06-20T00:16:25.747Z,16.30
2019-06-20T00:18:53.812Z,19.37
2019-06-20T00:21:21.517Z,12.75
2019-06-20T00:23:50.799Z,19.15
2019-06-20T00:26:17.382Z,11.88
2019-06-20T00:28:45.859Z,14.35
2019-06-20T00:31:12.708Z,16.67
2019-06-20T00:33:41.014Z,13.45
2019-06-20T00:36:07.745Z,12.45
2019-06-20T00:38:35.834Z,14.75
2019-06-20T00:41:03.749Z,17.32
2019-06-20T00:43:30.369Z,15.18
2019-06-20T00:46:00.894Z,14.23
2019-06-20T00:48:28.635Z,16.12
2019-06-20T00:50:56.810Z,19.32
2019-06-20T00:53:23.388Z,14.63
2019-06-20T00:55:52.074Z,18.05
2019-06-20T00:58:19.783Z,17.55
2019-06-20T01:00:46.357Z,16.00
2019-06-20T01:03:14.759Z,16.95
2019-06-20T01:05:41.596Z,14.60
2019-06-20T01:08:09.809Z,13.48
2019-06-20T01:10:36.421Z,17.67
2019-06-20T01:13:04.742Z,15.23
2019-06-20T01:15:32.785Z,16.23
2019-06-20T01:18:00.758Z,18.50
2019-06-20T01:20:28.473Z,16.65
2019-06-20T01:22:56.779Z,16.25
2019-06-20T01:25:42.896Z,14.98
2019-06-20T01:28:12.806Z,16.62
2019-06-20T01:30:40.721Z,12.30
2019-06-20T01:33:07.783Z,16.02
2019-06-20T01:35:36.800Z,13.18
2019-06-20T01:38:06.815Z,16.02
2019-06-20T01:40:33.515Z,16.50
2019-06-20T01:43:01.828Z,13.00
2019-06-20T01:45:29.816Z,16.45
2019-06-20T01:47:57.713Z,18.37
2019-06-20T01:50:25.851Z,17.37
2019-06-20T01:52:53.837Z,17.02
2019-06-20T01:55:21.768Z,15.30
2019-06-20T01:57:48.566Z,14.68
2019-06-20T02:00:33.783Z,14.65
2019-06-20T02:03:00.378Z,16.45
2019-06-20T02:05:28.795Z,18.48
2019-06-20T02:07:55.595Z,19.10
2019-06-20T02:10:23.827Z,18.25
2019-06-20T02:12:50.414Z,15.32
2019-06-20T02:15:17.451Z,17.90
2019-06-20T02:17:44.057Z,15.05
2019-06-20T02:20:33.780Z,14.78
2019-06-20T02:23:01.824Z,17.92
2019-06-20T02:25:28.922Z,17.62
2019-06-20T02:27:58.811Z,17.70
2019-06-20T02:30:27.860Z,16.40
2019-06-20T02:32:55.803Z,18.92
2019-06-20T02:35:24.474Z,19.60
2019-06-20T02:37:52.771Z,21.27
2019-06-20T02:40:19.734Z,21.17
2019-06-20T02:42:47.801Z,17.35
2019-06-20T02:45:15.141Z,16.40
2019-06-20T02:47:43.843Z,18.05
2019-06-20T02:50:11.208Z,19.20
2019-06-20T02:52:39.770Z,18.10
2019-06-20T02:55:08.865Z,15.18
2019-06-20T02:57:35.446Z,17.02
2019-06-20T03:00:08.756Z,13.35
2019-06-20T03:02:35.470Z,16.15
2019-06-20T03:05:05.821Z,16.42
2019-06-20T03:07:33.829Z,16.90
2019-06-20T03:10:01.831Z,16.75
2019-06-20T03:12:28.504Z,17.10
2019-06-20T03:14:56.797Z,23.05
2019-06-20T03:17:23.957Z,24.72
2019-06-20T03:19:53.362Z,20.55
2019-06-20T03:22:20.032Z,23.55
2019-06-20T03:24:47.908Z,20.62
2019-06-20T03:27:15.851Z,21.77
2019-06-20T03:29:43.966Z,19.40
2019-06-20T03:32:11.827Z,20.08
2019-06-20T03:34:39.791Z,19.98
2019-06-20T03:37:07.830Z,18.73
2019-06-20T03:39:34.389Z,22.10
2019-06-20T03:42:02.858Z,25.80
2019-06-20T03:44:30.814Z,18.15
2019-06-20T03:46:58.622Z,19.10
2019-06-20T03:49:26.903Z,18.95
2019-06-20T03:51:54.934Z,19.07
2019-06-20T03:54:21.504Z,19.75
2019-06-20T03:56:48.201Z,20.10
2019-06-20T03:59:17.772Z,18.90
2019-06-20T04:01:44.513Z,18.92
2019-06-20T04:04:12.812Z,23.98
2019-06-20T04:06:40.900Z,26.15
2019-06-20T04:09:08.865Z,23.07
2019-06-20T04:11:35.539Z,19.35
2019-06-20T04:14:03.884Z,20.50
2019-06-20T04:16:32.486Z,21.85
2019-06-20T04:19:00.790Z,19.48
2019-06-20T04:21:29.865Z,22.37
2019-06-20T04:23:57.847Z,19.17
2019-06-20T04:26:24.380Z,24.55
2019-06-20T04:28:54.876Z,17.98
2019-06-20T04:31:21.615Z,22.85
2019-06-20T04:33:49.897Z,23.50
2019-06-20T04:36:17.848Z,19.30
2019-06-20T04:38:44.544Z,24.82
2019-06-20T04:41:11.257Z,20.17
2019-06-20T04:43:37.827Z,25.82
2019-06-20T04:46:14.884Z,23.62
2019-06-20T04:48:42.899Z,27.35
2019-06-20T04:51:10.552Z,22.37
2019-06-20T04:53:38.878Z,22.80
2019-06-20T04:56:05.970Z,20.25
2019-06-20T04:58:33.884Z,23.80
2019-06-20T05:01:02.171Z,22.00
2019-06-20T05:03:30.883Z,27.07
2019-06-20T05:05:59.092Z,24.77
2019-06-20T05:08:26.843Z,25.85
2019-06-20T05:10:53.477Z,25.70
2019-06-20T05:13:21.883Z,23.80
2019-06-20T05:15:52.898Z,24.35
2019-06-20T05:18:19.880Z,23.40
2019-06-20T05:20:46.458Z,25.50
2019-06-20T05:23:14.926Z,20.70
2019-06-20T05:25:41.572Z,23.35
2019-06-20T05:28:09.911Z,19.90
2019-06-20T05:30:39.916Z,21.48
2019-06-20T05:33:06.500Z,25.10
2019-06-20T05:35:34.938Z,23.87
2019-06-20T05:38:02.890Z,20.15
2019-06-20T05:40:30.987Z,21.25
2019-06-20T05:42:57.544Z,26.37
2019-06-20T05:45:26.032Z,21.65
2019-06-20T05:47:52.611Z,26.42
2019-06-20T05:50:20.870Z,20.85
2019-06-20T05:52:47.565Z,18.12
2019-06-20T05:55:16.947Z,21.65
2019-06-20T05:57:44.932Z,15.88
2019-06-20T06:00:12.718Z,21.82
2019-06-20T06:02:42.914Z,20.12
2019-06-20T06:05:12.545Z,20.97
2019-06-20T06:07:40.987Z,20.68
2019-06-20T06:10:09.872Z,21.77
2019-06-20T06:12:37.888Z,18.85
2019-06-20T06:15:08.811Z,16.82
2019-06-20T06:17:35.790Z,19.12
2019-06-20T06:20:07.871Z,21.42
2019-06-20T06:22:34.986Z,18.20
2019-06-20T06:25:06.886Z,16.55
2019-06-20T06:27:33.768Z,20.05
2019-06-20T06:30:07.921Z,19.73
2019-06-20T06:32:39.919Z,19.62
2019-06-20T06:35:07.626Z,20.23
2019-06-20T06:37:35.979Z,16.48
2019-06-20T06:40:09.832Z,16.87
2019-06-20T06:42:37.865Z,15.90
2019-06-20T06:45:07.359Z,19.40
2019-06-20T06:47:35.875Z,16.55
2019-06-20T06:50:04.907Z,14.03
2019-06-20T06:52:31.531Z,16.10
2019-06-20T06:54:59.953Z,13.65
2019-06-20T06:57:26.532Z,16.45
2019-06-20T06:59:55.008Z,16.00
2019-06-20T07:02:25.028Z,14.25
2019-06-20T07:04:52.960Z,18.48
2019-06-20T07:07:21.095Z,14.90
2019-06-20T07:09:48.894Z,14.98
2019-06-20T07:12:15.781Z,15.00
2019-06-20T07:14:43.894Z,15.08
2019-06-20T07:17:19.630Z,13.68
2019-06-20T07:19:47.962Z,14.03
2019-06-20T07:22:15.875Z,15.00
2019-06-20T07:24:44.244Z,13.78
2019-06-20T07:27:10.762Z,13.60
2019-06-20T07:29:39.001Z,17.20
2019-06-20T07:32:07.335Z,13.98
2019-06-20T07:34:34.031Z,14.87
2019-06-20T07:37:02.001Z,13.30
2019-06-20T07:39:28.756Z,11.25
2019-06-20T07:41:56.907Z,16.93
2019-06-20T07:44:23.595Z,12.63
2019-06-20T07:46:51.960Z,11.90
2019-06-20T07:49:18.514Z,10.80
2019-06-20T07:51:47.056Z,10.50
2019-06-20T07:54:13.617Z,10.80
2019-06-20T07:56:41.951Z,10.30
2019-06-20T07:59:09.692Z,14.45
2019-06-20T08:01:38.031Z,10.10
2019-06-20T08:04:06.245Z,18.52
2019-06-20T08:06:34.980Z,13.75
2019-06-20T08:09:02.871Z,15.58
2019-06-20T08:11:32.950Z,10.75
2019-06-20T08:13:59.592Z,12.80
2019-06-20T08:16:29.022Z,11.90
2019-06-20T08:18:57.056Z,9.33
2019-06-20T08:21:24.966Z,10.60
2019-06-20T08:23:51.608Z,8.63
2019-06-20T08:26:20.992Z,8.58
2019-06-20T08:28:47.656Z,7.25
2019-06-20T08:31:16.005Z,9.60
2019-06-20T08:33:44.403Z,11.70
2019-06-20T08:36:14.002Z,7.35
2019-06-20T08:38:40.681Z,10.45
2019-06-20T08:41:07.510Z,9.35
2019-06-20T08:43:38.007Z,12.55
2019-06-20T08:46:10.068Z,10.53
2019-06-20T08:48:36.102Z,8.65
2019-06-20T08:51:04.437Z,11.20
2019-06-20T08:53:33.958Z,14.15
2019-06-20T08:56:00.933Z,14.38
2019-06-20T08:58:29.106Z,18.85
2019-06-20T09:00:58.021Z,16.60
2019-06-20T09:03:26.193Z,14.73
2019-06-20T09:05:57.095Z,14.65
2019-06-20T09:08:24.546Z,15.45
2019-06-20T09:10:54.351Z,12.13
2019-06-20T09:13:21.320Z,10.75
2019-06-20T09:15:50.081Z,14.98
2019-06-20T09:18:18.688Z,17.35
2019-06-20T09:20:46.997Z,12.05
2019-06-20T09:23:13.637Z,11.48
2019-06-20T09:25:41.954Z,19.82
2019-06-20T09:28:09.149Z,15.38
2019-06-20T09:30:39.050Z,13.88
2019-06-20T09:33:08.027Z,17.35
2019-06-20T09:35:36.344Z,21.00
2019-06-20T09:38:05.044Z,17.15
2019-06-20T09:40:31.968Z,17.10
2019-06-20T09:42:59.993Z,11.93
2019-06-20T09:45:28.932Z,15.35
2019-06-20T09:47:56.039Z,14.80
2019-06-20T09:50:25.025Z,10.82
2019-06-20T09:52:54.975Z,10.58
2019-06-20T09:55:23.073Z,12.45
2019-06-20T09:57:52.008Z,11.12
2019-06-20T10:00:21.604Z,13.65
2019-06-20T10:02:51.769Z,13.18
2019-06-20T10:05:22.068Z,12.20
2019-06-20T10:07:52.317Z,11.05
2019-06-20T10:10:21.486Z,11.15
2019-06-20T10:12:50.058Z,10.55
2019-06-20T10:15:21.176Z,11.20
2019-06-20T10:17:50.979Z,10.88
2019-06-20T10:20:20.585Z,12.33
2019-06-20T10:22:49.098Z,14.70
2019-06-20T10:25:16.189Z,10.40
2019-06-20T10:27:47.880Z,12.75
2019-06-20T10:30:17.261Z,9.18
2019-06-20T10:32:46.782Z,10.98
2019-06-20T10:35:14.670Z,9.70
2019-06-20T10:37:45.581Z,9.28
2019-06-20T10:40:19.071Z,9.00
2019-06-20T10:42:50.276Z,9.10
2019-06-20T10:45:21.012Z,9.60
2019-06-20T10:47:48.991Z,12.55
2019-06-20T10:50:16.308Z,10.10
2019-06-20T10:52:43.698Z,15.58
2019-06-20T10:55:13.077Z,7.40
2019-06-20T10:57:41.836Z,7.17
2019-06-20T11:00:12.107Z,6.25
2019-06-20T11:02:38.764Z,5.12
2019-06-20T11:05:05.937Z,7.95
2019-06-20T11:07:36.117Z,6.17
2019-06-20T11:10:09.069Z,7.33
2019-06-20T11:12:45.555Z,10.68
2019-06-20T11:15:07.021Z,5.47
2019-06-20T11:17:35.017Z,6.60
2019-06-20T11:20:03.429Z,7.53
2019-06-20T11:22:30.125Z,7.00
2019-06-20T11:24:56.702Z,8.75
2019-06-20T11:27:26.100Z,10.68
2019-06-20T11:29:52.841Z,6.92
2019-06-20T11:32:21.133Z,10.60
2019-06-20T11:34:47.716Z,7.67
2019-06-20T11:37:18.102Z,7.22
2019-06-20T11:39:47.463Z,5.67
2019-06-20T11:42:16.084Z,6.45
2019-06-20T11:44:43.103Z,7.40
2019-06-20T11:47:12.094Z,6.40
2019-06-20T11:49:40.418Z,6.95
2019-06-20T11:52:09.188Z,5.37
2019-06-20T11:54:38.247Z,7.28
2019-06-20T11:57:04.936Z,9.23
2019-06-20T11:59:33.064Z,10.72
2019-06-20T12:01:59.701Z,11.80
2019-06-20T12:04:28.224Z,8.63
2019-06-20T12:06:58.062Z,10.18
2019-06-20T12:09:24.694Z,11.95
2019-06-20T12:11:53.144Z,12.85
2019-06-20T12:14:21.091Z,9.95
2019-06-20T12:16:49.998Z,8.53
2019-06-20T12:19:16.830Z,9.88
2019-06-20T12:21:44.560Z,12.23
2019-06-20T12:24:14.097Z,9.95
2019-06-20T12:26:42.460Z,10.05
2019-06-20T12:29:12.112Z,13.62
2019-06-20T12:31:41.091Z,8.43
2019-06-20T12:34:08.288Z,13.48
2019-06-20T12:36:39.013Z,12.63
2019-06-20T12:39:09.199Z,9.28
2019-06-20T12:41:36.172Z,11.15
2019-06-20T12:44:05.237Z,8.48
2019-06-20T12:46:31.790Z,7.45
2019-06-20T12:48:59.372Z,8.30
2019-06-20T12:51:25.904Z,7.97
2019-06-20T12:53:54.098Z,7.53
2019-06-20T12:56:22.213Z,12.73
2019-06-20T12:58:50.009Z,6.42
2019-06-20T13:01:16.569Z,7.35
2019-06-20T13:03:43.287Z,11.40
2019-06-20T13:06:13.160Z,7.28
2019-06-20T13:08:43.652Z,4.80
2019-06-20T13:11:10.842Z,4.55
2019-06-20T13:13:38.746Z,4.75
2019-06-20T13:16:06.223Z,6.70
2019-06-20T13:18:35.143Z,6.55
2019-06-20T13:21:03.236Z,4.33
2019-06-20T13:23:31.165Z,5.00
2019-06-20T13:25:59.185Z,5.20
2019-06-20T13:28:25.819Z,5.42
2019-06-20T13:30:55.108Z,6.83
2019-06-20T13:33:21.713Z,4.70
2019-06-20T13:35:51.162Z,7.17
2019-06-20T13:38:17.701Z,6.90
2019-06-20T13:40:45.378Z,5.92
2019-06-20T13:43:14.413Z,7.42
2019-06-20T13:45:42.372Z,6.37
2019-06-20T13:48:08.964Z,6.85
2019-06-20T13:50:37.188Z,7.05
2019-06-20T13:53:04.346Z,7.58
2019-06-20T13:55:34.113Z,7.78
2019-06-20T13:58:02.042Z,6.65
2019-06-20T14:00:29.783Z,8.75
2019-06-20T14:02:58.198Z,10.72
2019-06-20T14:05:24.960Z,6.62
2019-06-20T14:07:54.371Z,5.85
2019-06-20T14:10:25.271Z,11.48
2019-06-20T14:12:51.940Z,9.98
2019-06-20T14:15:21.189Z,9.88
2019-06-20T14:17:49.729Z,10.28
2019-06-20T14:20:19.180Z,12.28
2019-06-20T14:22:49.689Z,16.60
2019-06-20T14:25:17.917Z,13.32
2019-06-20T14:27:46.315Z,10.43
2019-06-20T14:30:15.263Z,8.58
2019-06-20T14:32:43.227Z,10.30
2019-06-20T14:35:12.224Z,8.28
2019-06-20T14:37:38.996Z,8.60
2019-06-20T14:40:08.139Z,10.32
2019-06-20T14:42:36.738Z,7.53
2019-06-20T14:45:07.225Z,9.55
2019-06-20T14:47:34.771Z,11.33
2019-06-20T14:50:03.225Z,7.30
2019-06-20T14:52:29.981Z,7.10
2019-06-20T14:54:58.147Z,6.60
2019-06-20T14:57:25.986Z,7.97
2019-06-20T14:59:53.042Z,8.48
2019-06-20T15:02:34.585Z,7.03
2019-06-20T15:04:52.588Z,8.05
2019-06-20T15:07:19.476Z,13.22
2019-06-20T15:09:49.662Z,6.72
2019-06-20T15:12:18.506Z,7.53
2019-06-20T15:14:47.901Z,5.30
2019-06-20T15:17:14.825Z,6.12
2019-06-20T15:19:43.221Z,11.22
2019-06-20T15:22:11.291Z,8.73
2019-06-20T15:24:39.181Z,15.32
2019-06-20T15:27:07.661Z,6.42
2019-06-20T15:29:34.234Z,5.08
2019-06-20T15:32:02.158Z,5.55
2019-06-20T15:34:28.772Z,5.15
2019-06-20T15:36:57.784Z,5.00
2019-06-20T15:39:24.624Z,3.35
2019-06-20T15:41:54.166Z,3.90
2019-06-20T15:44:22.590Z,3.50
2019-06-20T15:46:51.285Z,7.05
2019-06-20T15:49:19.310Z,4.83
2019-06-20T15:51:47.266Z,7.42
2019-06-20T15:54:13.841Z,4.65
2019-06-20T15:56:42.272Z,6.53
2019-06-20T15:59:09.162Z,7.45
2019-06-20T16:01:37.306Z,4.25
2019-06-20T16:04:03.875Z,7.22
2019-06-20T16:06:30.480Z,5.62
2019-06-20T16:08:58.215Z,4.22
2019-06-20T16:11:26.253Z,7.00
2019-06-20T16:13:52.869Z,4.17
2019-06-20T16:16:23.292Z,10.43
2019-06-20T16:18:50.106Z,6.25
2019-06-20T16:21:19.213Z,7.10
2019-06-20T16:23:47.217Z,4.95
2019-06-20T16:26:16.286Z,9.38
2019-06-20T16:28:44.247Z,4.25
2019-06-20T16:31:25.943Z,4.85
2019-06-20T16:33:41.187Z,6.62
2019-06-20T16:36:12.215Z,4.90
2019-06-20T16:38:37.934Z,4.45
2019-06-20T16:41:06.185Z,8.08
2019-06-20T16:43:34.363Z,3.60
2019-06-20T16:46:04.268Z,6.62
2019-06-20T16:48:33.383Z,2.80
2019-06-20T16:51:01.708Z,5.15
2019-06-20T16:53:30.285Z,5.92
2019-06-20T16:55:56.831Z,5.37
2019-06-20T16:58:23.492Z,6.62
2019-06-20T17:00:52.340Z,9.88
2019-06-20T17:03:19.045Z,5.00
2019-06-20T17:05:47.311Z,6.42
2019-06-20T17:08:17.550Z,9.18
2019-06-20T17:10:46.264Z,6.42
2019-06-20T17:13:14.583Z,6.22
2019-06-20T17:15:43.324Z,7.08
2019-06-20T17:18:09.980Z,6.60
2019-06-20T17:20:38.231Z,4.47
2019-06-20T17:23:07.219Z,6.45
2019-06-20T17:25:34.081Z,7.12
2019-06-20T17:28:04.305Z,4.35
2019-06-20T17:30:31.187Z,11.95
2019-06-20T17:32:59.301Z,4.35
2019-06-20T17:35:26.231Z,5.80
2019-06-20T17:37:54.320Z,8.33
2019-06-20T17:40:23.333Z,7.80
2019-06-20T17:42:53.337Z,5.53
2019-06-20T17:45:20.982Z,6.62
2019-06-20T17:47:49.287Z,6.12
2019-06-20T17:50:16.769Z,5.78
2019-06-20T17:52:45.322Z,4.00
2019-06-20T17:55:12.737Z,3.72
2019-06-20T17:57:41.314Z,5.72
2019-06-20T18:00:12.075Z,7.45
2019-06-20T18:02:38.969Z,6.03
2019-06-20T18:05:08.288Z,5.55
2019-06-20T18:07:35.121Z,7.10
2019-06-20T18:10:04.273Z,8.53
2019-06-20T18:12:32.596Z,5.65
2019-06-20T18:15:02.294Z,4.30
2019-06-20T18:17:31.349Z,10.90
2019-06-20T18:19:57.974Z,9.98
2019-06-20T18:22:26.285Z,6.03
2019-06-20T18:24:52.838Z,5.17
2019-06-20T18:27:22.327Z,3.72
2019-06-20T18:29:50.375Z,6.40
2019-06-20T18:32:18.376Z,7.17
2019-06-20T18:35:00.540Z,6.55
2019-06-20T18:37:30.441Z,8.25
2019-06-20T18:39:43.804Z,5.20
2019-06-20T18:42:13.316Z,6.80
2019-06-20T18:44:41.402Z,5.37
2019-06-20T18:47:11.387Z,6.85
2019-06-20T18:49:38.173Z,13.48
2019-06-20T18:52:04.890Z,6.67
2019-06-20T18:54:31.669Z,3.42
2019-06-20T18:57:00.412Z,11.22
2019-06-20T18:59:26.987Z,7.25
2019-06-20T19:01:53.931Z,11.57
2019-06-20T19:04:23.405Z,7.83
2019-06-20T19:06:49.955Z,6.08
2019-06-20T19:09:18.293Z,15.70
2019-06-20T19:11:46.346Z,9.68
2019-06-20T19:14:13.175Z,7.65
2019-06-20T19:16:41.512Z,6.72
2019-06-20T19:19:08.287Z,7.75
2019-06-20T19:21:36.445Z,17.75
2019-06-20T19:24:05.389Z,7.95
2019-06-20T19:26:33.356Z,10.78
2019-06-20T19:29:01.305Z,5.53
2019-06-20T19:31:27.874Z,7.50
2019-06-20T19:33:56.363Z,7.20
2019-06-20T19:36:22.914Z,7.78
2019-06-20T19:38:51.367Z,8.58
2019-06-20T19:41:18.166Z,8.03
2019-06-20T19:43:46.356Z,2.95
2019-06-20T19:46:16.005Z,9.28
2019-06-20T19:48:44.428Z,9.05
2019-06-20T19:51:13.370Z,6.67
2019-06-20T19:53:40.299Z,5.47
2019-06-20T19:56:08.478Z,5.10
2019-06-20T19:58:35.345Z,5.95
2019-06-20T20:01:03.462Z,9.23
2019-06-20T20:03:34.318Z,10.05
2019-06-20T20:06:01.065Z,5.28
2019-06-20T20:08:29.276Z,9.83
2019-06-20T20:10:57.350Z,3.60
2019-06-20T20:13:24.200Z,4.75
2019-06-20T20:15:52.447Z,11.35
2019-06-20T20:18:19.042Z,7.47
2019-06-20T20:20:49.395Z,3.60
2019-06-20T20:23:16.153Z,7.60
2019-06-20T20:25:44.310Z,10.85
2019-06-20T20:28:12.551Z,4.83
2019-06-20T20:30:39.699Z,5.85
2019-06-20T20:33:08.405Z,3.75
2019-06-20T20:35:36.097Z,5.22
2019-06-20T20:38:05.394Z,5.05
2019-06-20T20:40:34.304Z,7.33
2019-06-20T20:43:00.991Z,5.83
2019-06-20T20:45:29.327Z,9.13
2019-06-20T20:47:57.544Z,11.83
2019-06-20T20:50:26.369Z,12.95
2019-06-20T20:52:53.164Z,7.33
2019-06-20T20:55:22.399Z,14.40
2019-06-20T20:57:49.192Z,7.85
2019-06-20T21:00:25.384Z,11.22
2019-06-20T21:02:52.842Z,9.85
2019-06-20T21:05:21.352Z,6.65
2019-06-20T21:07:49.400Z,5.40
2019-06-20T21:10:17.500Z,9.95
2019-06-20T21:12:44.458Z,10.20
2019-06-20T21:15:11.880Z,10.32
2019-06-20T21:17:40.492Z,11.88
2019-06-20T21:20:10.368Z,10.75
2019-06-20T21:22:38.448Z,8.83
2019-06-20T21:25:06.984Z,10.23
2019-06-20T21:27:35.405Z,7.85
2019-06-20T21:30:03.866Z,12.45
2019-06-20T21:32:32.363Z,7.85
2019-06-20T21:34:58.915Z,12.78
2019-06-20T21:37:27.380Z,9.23
2019-06-20T21:39:54.042Z,11.88
2019-06-20T21:42:23.332Z,12.55
2019-06-20T21:44:51.495Z,11.83
2019-06-20T21:47:19.381Z,11.15
2019-06-20T21:49:49.501Z,12.07
2019-06-20T21:52:17.333Z,16.82
2019-06-20T21:54:45.415Z,14.25
2019-06-20T21:57:14.203Z,16.12
2019-06-20T21:59:42.402Z,20.37
2019-06-20T22:02:09.064Z,19.82
2019-06-20T22:04:37.504Z,19.92
2019-06-20T22:07:04.280Z,19.25
2019-06-20T22:09:32.352Z,18.45
2019-06-20T22:11:58.992Z,18.67
2019-06-20T22:14:27.343Z,19.75
2019-06-20T22:16:53.915Z,17.62
2019-06-20T22:19:24.399Z,17.02
2019-06-20T22:21:52.334Z,17.35
2019-06-20T22:24:20.428Z,21.73
2019-06-20T22:26:47.086Z,16.57
2019-06-20T22:29:15.327Z,25.82
2019-06-20T22:31:42.072Z,17.45
2019-06-20T22:34:10.367Z,22.67
2019-06-20T22:36:40.545Z,17.73
2019-06-20T22:39:09.478Z,17.42
2019-06-20T22:41:38.504Z,17.55
2019-06-20T22:44:08.407Z,19.45
2019-06-20T22:46:34.945Z,21.30
2019-06-20T22:49:04.428Z,21.07
2019-06-20T22:51:32.745Z,20.32
2019-06-20T22:54:01.400Z,22.90
2019-06-20T22:56:29.487Z,24.50
2019-06-20T22:58:57.433Z,25.75
2019-06-20T23:01:24.540Z,21.75
2019-06-20T23:03:52.390Z,23.40
2019-06-20T23:06:19.011Z,26.12
2019-06-20T23:08:47.439Z,21.97
2019-06-20T23:11:14.148Z,24.70
2019-06-20T23:13:40.758Z,29.20
2019-06-20T23:16:08.517Z,20.80
2019-06-20T23:18:38.440Z,28.02
2019-06-20T23:21:06.401Z,20.00
2019-06-20T23:23:36.512Z,23.45
2019-06-20T23:26:05.241Z,20.43
2019-06-20T23:28:33.457Z,21.70
2019-06-20T23:31:00.201Z,18.90
2019-06-20T23:33:28.374Z,23.22
2019-06-20T23:35:54.909Z,20.15
2019-06-20T23:38:24.337Z,25.05
2019-06-20T23:40:52.450Z,24.05
2019-06-20T23:43:20.421Z,20.62
2019-06-20T23:45:47.090Z,23.85
2019-06-20T23:48:17.495Z,24.47
2019-06-20T23:50:46.483Z,24.30
2019-06-20T23:53:15.132Z,21.97
2019-06-20T23:55:44.463Z,20.57
2019-06-20T23:58:11.031Z,22.52
